createdAt,value
2018-09-04T00:01:28.958Z,12.10
2018-09-04T00:03:57.019Z,11.87
2018-09-04T00:06:25.101Z,14.30
2018-09-04T00:08:53.175Z,11.80
2018-09-04T00:11:21.247Z,14.97
2018-09-04T00:13:49.312Z,13.27
2018-09-04T00:16:17.500Z,15.40
2018-09-04T00:18:45.592Z,13.87
2018-09-04T00:21:13.699Z,14.30
2018-09-04T00:23:41.751Z,14.53
2018-09-04T00:26:09.823Z,13.13
2018-09-04T00:28:37.869Z,13.57
2018-09-04T00:31:05.928Z,13.00
2018-09-04T00:33:33.995Z,14.83
2018-09-04T00:36:02.086Z,15.03
2018-09-04T00:38:30.153Z,15.03
2018-09-04T00:40:58.231Z,17.60
2018-09-04T00:43:26.918Z,15.57
2018-09-04T00:45:54.975Z,18.70
2018-09-04T00:48:23.065Z,13.57
2018-09-04T00:50:51.835Z,13.70
2018-09-04T00:53:20.140Z,15.33
2018-09-04T00:55:48.810Z,14.83
2018-09-04T00:58:16.871Z,15.10
2018-09-04T01:00:44.967Z,15.47
2018-09-04T01:03:13.027Z,16.40
2018-09-04T01:05:41.083Z,15.30
2018-09-04T01:08:09.148Z,17.50
2018-09-04T01:10:37.196Z,18.90
2018-09-04T01:13:05.283Z,16.17
2018-09-04T01:15:33.477Z,16.77
2018-09-04T01:18:01.563Z,16.97
2018-09-04T01:20:29.606Z,15.67
2018-09-04T01:22:57.667Z,15.57
2018-09-04T01:25:25.725Z,16.83
2018-09-04T01:27:53.802Z,17.27
2018-09-04T01:30:21.862Z,16.77
2018-09-04T01:32:49.936Z,17.53
2018-09-04T01:35:17.987Z,20.37
2018-09-04T01:37:46.045Z,20.47
2018-09-04T01:40:14.123Z,20.07
2018-09-04T01:42:42.194Z,17.17
2018-09-04T01:45:10.263Z,17.60
2018-09-04T01:47:38.326Z,20.37
2018-09-04T01:50:06.373Z,17.53
2018-09-04T01:52:34.438Z,20.30
2018-09-04T01:55:02.491Z,19.90
2018-09-04T01:57:30.564Z,18.43
2018-09-04T01:59:58.682Z,18.90
2018-09-04T02:02:26.750Z,22.03
2018-09-04T02:04:54.816Z,17.63
2018-09-04T02:07:22.896Z,18.27
2018-09-04T02:09:50.985Z,18.77
2018-09-04T02:12:19.054Z,21.63
2018-09-04T02:14:47.131Z,16.90
2018-09-04T02:17:15.358Z,16.67
2018-09-04T02:19:43.458Z,21.73
2018-09-04T02:22:11.541Z,16.97
2018-09-04T02:24:39.606Z,17.20
2018-09-04T02:27:07.671Z,18.87
2018-09-04T02:29:35.738Z,20.37
2018-09-04T02:32:03.787Z,18.53
2018-09-04T02:34:31.858Z,18.83
2018-09-04T02:36:59.929Z,17.97
2018-09-04T02:39:28.006Z,17.73
2018-09-04T02:41:56.069Z,19.07
2018-09-04T02:44:24.162Z,19.57
2018-09-04T02:46:52.227Z,16.67
2018-09-04T02:49:20.285Z,19.23
2018-09-04T02:51:48.327Z,17.63
2018-09-04T02:54:16.385Z,21.37
2018-09-04T02:56:44.471Z,19.43
2018-09-04T02:59:12.518Z,20.87
2018-09-04T03:01:40.578Z,18.43
2018-09-04T03:04:08.646Z,17.83
2018-09-04T03:06:36.719Z,19.03
2018-09-04T03:09:06.034Z,18.80
2018-09-04T03:11:34.097Z,18.03
2018-09-04T03:14:02.277Z,19.57
2018-09-04T03:16:30.286Z,20.37
2018-09-04T03:18:58.387Z,17.90
2018-09-04T03:21:26.465Z,24.27
2018-09-04T03:23:54.523Z,19.90
2018-09-04T03:26:22.574Z,18.63
2018-09-04T03:28:50.623Z,22.67
2018-09-04T03:31:18.996Z,19.13
2018-09-04T03:33:47.087Z,18.23
2018-09-04T03:36:15.159Z,17.87
2018-09-04T03:38:43.207Z,21.00
2018-09-04T03:41:11.290Z,18.23
2018-09-04T03:43:39.364Z,18.47
2018-09-04T03:46:07.425Z,19.20
2018-09-04T03:48:35.510Z,18.67
2018-09-04T03:51:03.562Z,18.17
2018-09-04T03:53:31.638Z,16.90
2018-09-04T03:55:59.690Z,20.70
2018-09-04T03:58:27.763Z,19.00
2018-09-04T04:00:55.826Z,19.57
2018-09-04T04:03:23.907Z,17.87
2018-09-04T04:05:51.970Z,22.07
2018-09-04T04:08:20.036Z,20.57
2018-09-04T04:10:48.102Z,18.00
2018-09-04T04:13:16.184Z,19.53
2018-09-04T04:15:44.271Z,19.67
2018-09-04T04:18:12.346Z,18.43
2018-09-04T04:20:44.685Z,22.20
2018-09-04T04:23:12.726Z,21.60
2018-09-04T04:25:40.815Z,22.23
2018-09-04T04:28:08.887Z,21.80
2018-09-04T04:30:36.957Z,23.93
2018-09-04T04:33:05.022Z,20.80
2018-09-04T04:35:33.108Z,22.23
2018-09-04T04:38:01.174Z,20.00
2018-09-04T04:40:29.234Z,21.20
2018-09-04T04:42:57.290Z,21.70
2018-09-04T04:45:25.358Z,21.07
2018-09-04T04:47:53.452Z,20.50
2018-09-04T04:50:21.490Z,18.07
2018-09-04T04:52:49.551Z,18.17
2018-09-04T04:55:17.619Z,19.77
2018-09-04T04:57:45.705Z,16.77
2018-09-04T05:00:13.814Z,16.50
2018-09-04T05:02:41.845Z,17.53
2018-09-04T05:05:09.916Z,18.47
2018-09-04T05:07:37.993Z,14.83
2018-09-04T05:10:06.646Z,15.03
2018-09-04T05:12:34.689Z,16.77
2018-09-04T05:15:02.759Z,15.80
2018-09-04T05:17:30.824Z,16.27
2018-09-04T05:19:58.951Z,14.20
2018-09-04T05:22:27.045Z,16.17
2018-09-04T05:24:55.106Z,11.73
2018-09-04T05:27:23.158Z,17.60
2018-09-04T05:29:51.214Z,12.97
2018-09-04T05:32:25.059Z,12.97
2018-09-04T05:34:53.128Z,14.40
2018-09-04T05:37:21.198Z,11.70
2018-09-04T05:39:49.540Z,12.70
2018-09-04T05:42:22.991Z,11.70
2018-09-04T05:44:51.237Z,10.57
2018-09-04T05:47:19.334Z,11.83
2018-09-04T05:49:47.432Z,9.77
2018-09-04T05:52:15.611Z,11.27
2018-09-04T05:54:43.743Z,12.07
2018-09-04T05:57:11.835Z,10.83
2018-09-04T05:59:39.926Z,8.90
2018-09-04T06:02:08.068Z,9.17
2018-09-04T06:04:36.198Z,9.97
2018-09-04T06:07:04.378Z,10.10
2018-09-04T06:09:32.453Z,11.10
2018-09-04T06:12:00.641Z,10.43
2018-09-04T06:14:29.974Z,10.03
2018-09-04T06:16:58.791Z,10.03
2018-09-04T06:19:26.886Z,8.55
2018-09-04T06:21:54.977Z,9.05
2018-09-04T06:24:23.975Z,8.88
2018-09-04T06:26:52.136Z,8.23
2018-09-04T06:29:20.258Z,12.15
2018-09-04T06:31:49.082Z,9.50
2018-09-04T06:34:17.168Z,8.30
2018-09-04T06:36:45.422Z,8.00
2018-09-04T06:39:13.527Z,8.18
2018-09-04T06:41:41.664Z,7.17
2018-09-04T06:44:09.840Z,7.87
2018-09-04T06:46:38.003Z,9.18
2018-09-04T06:49:06.084Z,7.83
2018-09-04T06:51:34.252Z,7.67
2018-09-04T06:54:02.397Z,8.65
2018-09-04T06:56:30.584Z,9.10
2018-09-04T06:58:58.663Z,7.33
2018-09-04T07:01:26.742Z,11.43
2018-09-04T07:03:54.835Z,8.13
2018-09-04T07:06:22.894Z,8.78
2018-09-04T07:08:51.022Z,7.95
2018-09-04T07:11:19.272Z,9.13
2018-09-04T07:13:47.386Z,7.97
2018-09-04T07:16:15.495Z,7.80
2018-09-04T07:18:43.630Z,7.92
2018-09-04T07:21:11.798Z,7.55
2018-09-04T07:23:39.931Z,9.05
2018-09-04T07:26:07.847Z,9.60
2018-09-04T07:28:35.926Z,7.45
2018-09-04T07:31:04.020Z,9.78
2018-09-04T07:33:32.146Z,7.08
2018-09-04T07:36:00.270Z,7.40
2018-09-04T07:38:29.197Z,7.78
2018-09-04T07:40:57.290Z,7.12
2018-09-04T07:43:25.405Z,7.65
2018-09-04T07:45:53.537Z,11.20
2018-09-04T07:48:21.611Z,7.33
2018-09-04T07:50:50.441Z,7.05
2018-09-04T07:53:18.552Z,9.20
2018-09-04T07:55:46.729Z,8.60
2018-09-04T07:58:14.805Z,8.18
2018-09-04T08:00:42.910Z,5.90
2018-09-04T08:03:11.041Z,8.70
2018-09-04T08:05:39.248Z,7.67
2018-09-04T08:08:07.419Z,6.67
2018-09-04T08:10:36.260Z,10.28
2018-09-04T08:13:06.227Z,6.70
2018-09-04T08:15:34.541Z,6.62
2018-09-04T08:18:02.657Z,9.18
2018-09-04T08:20:30.936Z,7.67
2018-09-04T08:22:58.939Z,7.22
2018-09-04T08:25:27.305Z,6.90
2018-09-04T08:27:55.482Z,6.12
2018-09-04T08:30:24.072Z,6.58
2018-09-04T08:32:52.232Z,9.48
2018-09-04T08:35:20.350Z,8.28
2018-09-04T08:37:48.535Z,10.70
2018-09-04T08:40:16.634Z,7.58
2018-09-04T08:42:44.760Z,6.33
2018-09-04T08:45:12.924Z,6.85
2018-09-04T08:47:41.127Z,8.88
2018-09-04T08:50:09.370Z,5.65
2018-09-04T08:52:37.559Z,9.33
2018-09-04T08:55:05.855Z,7.70
2018-09-04T08:57:33.995Z,10.05
2018-09-04T09:00:02.142Z,6.12
2018-09-04T09:02:30.285Z,7.95
2018-09-04T09:04:58.471Z,6.62
2018-09-04T09:07:26.595Z,7.97
2018-09-04T09:09:54.825Z,12.18
2018-09-04T09:12:22.930Z,9.48
2018-09-04T09:14:51.061Z,9.13
2018-09-04T09:17:19.207Z,7.20
2018-09-04T09:19:47.328Z,9.83
2018-09-04T09:22:15.423Z,9.65
2018-09-04T09:24:43.545Z,8.23
2018-09-04T09:27:12.307Z,8.10
2018-09-04T09:29:40.424Z,7.30
2018-09-04T09:32:08.596Z,8.40
2018-09-04T09:34:36.786Z,6.45
2018-09-04T09:37:04.954Z,5.95
2018-09-04T09:39:32.987Z,8.70
2018-09-04T09:42:01.077Z,6.00
2018-09-04T09:44:29.213Z,5.85
2018-09-04T09:47:01.534Z,9.45
2018-09-04T09:49:30.372Z,8.18
2018-09-04T09:51:58.485Z,11.48
2018-09-04T09:54:26.637Z,5.62
2018-09-04T09:56:54.750Z,7.95
2018-09-04T09:59:23.001Z,7.12
2018-09-04T10:01:53.011Z,9.55
2018-09-04T10:04:21.222Z,7.28
2018-09-04T10:06:49.395Z,10.55
2018-09-04T10:09:17.512Z,10.55
2018-09-04T10:11:45.666Z,7.28
2018-09-04T10:14:13.836Z,6.87
2018-09-04T10:16:41.965Z,8.60
2018-09-04T10:19:10.047Z,6.83
2018-09-04T10:21:38.223Z,7.20
2018-09-04T10:24:06.433Z,8.70
2018-09-04T10:26:34.653Z,8.00
2018-09-04T10:29:02.682Z,7.70
2018-09-04T10:31:30.809Z,9.95
2018-09-04T10:33:59.458Z,6.25
2018-09-04T10:36:27.556Z,4.90
2018-09-04T10:39:01.147Z,5.53
2018-09-04T10:41:29.386Z,9.35
2018-09-04T10:43:58.037Z,5.20
2018-09-04T10:46:26.478Z,5.67
2018-09-04T10:48:54.607Z,6.87
2018-09-04T10:51:22.768Z,6.42
2018-09-04T10:53:50.849Z,5.62
2018-09-04T10:56:19.028Z,6.10
2018-09-04T10:58:47.133Z,7.45
2018-09-04T11:01:15.295Z,5.17
2018-09-04T11:03:43.396Z,6.97
2018-09-04T11:06:11.506Z,5.03
2018-09-04T11:08:39.635Z,6.33
2018-09-04T11:11:07.761Z,5.30
2018-09-04T11:13:35.916Z,4.15
2018-09-04T11:16:04.034Z,6.42
2018-09-04T11:18:32.166Z,6.60
2018-09-04T11:21:00.300Z,4.20
2018-09-04T11:23:28.458Z,6.30
2018-09-04T11:25:56.538Z,5.30
2018-09-04T11:28:24.644Z,6.65
2018-09-04T11:30:52.752Z,4.72
2018-09-04T11:33:20.871Z,7.03
2018-09-04T11:35:49.071Z,7.92
2018-09-04T11:38:17.237Z,8.63
2018-09-04T11:40:45.424Z,5.50
2018-09-04T11:43:13.490Z,7.62
2018-09-04T11:45:41.608Z,7.35
2018-09-04T11:48:11.536Z,4.05
2018-09-04T11:50:39.717Z,6.22
2018-09-04T11:53:07.794Z,5.47
2018-09-04T11:55:35.940Z,6.37
2018-09-04T11:58:04.030Z,4.53
2018-09-04T12:00:35.421Z,5.10
2018-09-04T12:03:03.599Z,6.15
2018-09-04T12:05:31.666Z,4.50
2018-09-04T12:07:59.827Z,5.10
2018-09-04T12:10:27.977Z,7.25
2018-09-04T12:12:56.127Z,4.65
2018-09-04T12:15:24.194Z,4.72
2018-09-04T12:17:52.282Z,3.95
2018-09-04T12:20:54.355Z,5.65
2018-09-04T12:23:22.406Z,6.25
2018-09-04T12:25:52.882Z,6.40
2018-09-04T12:28:21.011Z,5.33
2018-09-04T12:30:49.237Z,4.33
2018-09-04T12:33:17.454Z,4.33
2018-09-04T12:35:45.554Z,5.30
2018-09-04T12:38:16.325Z,5.33
2018-09-04T12:40:45.179Z,3.70
2018-09-04T12:43:13.321Z,4.70
2018-09-04T12:45:46.887Z,5.28
2018-09-04T12:48:32.524Z,10.03
2018-09-04T12:51:01.814Z,4.17
2018-09-04T12:53:30.718Z,5.37
2018-09-04T12:55:58.866Z,5.10
2018-09-04T12:58:26.998Z,4.58
2018-09-04T13:00:55.909Z,4.50
2018-09-04T13:03:27.943Z,5.00
2018-09-04T13:05:56.006Z,5.67
2018-09-04T13:08:25.643Z,6.45
2018-09-04T13:10:53.729Z,4.10
2018-09-04T13:22:00.102Z,4.08
2018-09-04T13:24:28.273Z,4.50
2018-09-04T13:26:56.399Z,5.90
2018-09-04T13:29:24.519Z,3.83
2018-09-04T13:31:52.804Z,3.90
2018-09-04T13:34:21.440Z,4.28
2018-09-04T13:36:49.523Z,4.10
2018-09-04T13:39:17.717Z,3.55
2018-09-04T13:41:45.836Z,5.22
2018-09-04T13:44:14.004Z,6.83
2018-09-04T13:46:42.119Z,3.70
2018-09-04T13:49:10.234Z,5.85
2018-09-04T13:51:38.654Z,3.92
2018-09-04T13:54:06.854Z,3.52
2018-09-04T13:56:34.951Z,5.90
2018-09-04T13:59:03.204Z,3.60
2018-09-04T14:01:31.312Z,4.15
2018-09-04T14:03:59.411Z,4.37
2018-09-04T14:06:27.575Z,3.80
2018-09-04T14:08:55.658Z,4.28
2018-09-04T14:11:23.876Z,4.45
2018-09-04T14:13:51.948Z,3.55
2018-09-04T14:16:21.434Z,3.67
2018-09-04T14:18:50.048Z,3.55
2018-09-04T14:21:18.167Z,4.53
2018-09-04T14:23:46.373Z,3.98
2018-09-04T14:26:14.446Z,5.95
2018-09-04T14:28:42.507Z,3.33
2018-09-04T14:31:10.567Z,3.27
2018-09-04T14:34:10.457Z,4.33
2018-09-04T14:36:39.007Z,3.20
2018-09-04T14:39:07.266Z,4.58
2018-09-04T14:41:35.487Z,6.33
2018-09-04T14:44:03.575Z,3.62
2018-09-04T14:46:31.638Z,3.35
2018-09-04T14:48:59.714Z,3.52
2018-09-04T14:51:27.807Z,3.47
2018-09-04T14:53:55.911Z,4.00
2018-09-04T14:56:24.090Z,3.55
2018-09-04T14:58:52.159Z,3.70
2018-09-04T15:01:20.236Z,4.03
2018-09-04T15:03:48.307Z,4.40
2018-09-04T15:06:16.444Z,3.85
2018-09-04T15:08:44.528Z,6.17
2018-09-04T15:11:12.626Z,4.15
2018-09-04T15:13:40.703Z,4.05
2018-09-04T15:16:08.782Z,7.03
2018-09-04T15:18:36.879Z,5.05
2018-09-04T15:21:04.966Z,3.85
2018-09-04T15:23:33.030Z,4.28
2018-09-04T15:26:01.111Z,5.17
2018-09-04T15:28:29.219Z,3.92
2018-09-04T15:30:57.337Z,3.87
2018-09-04T15:33:25.411Z,5.20
2018-09-04T15:35:53.512Z,5.17
2018-09-04T15:38:21.582Z,5.42
2018-09-04T15:40:49.656Z,4.20
2018-09-04T15:43:17.722Z,7.72
2018-09-04T15:45:45.847Z,3.72
2018-09-04T15:48:13.918Z,3.65
2018-09-04T15:50:42.014Z,4.25
2018-09-04T15:53:10.103Z,9.35
2018-09-04T15:55:38.189Z,6.40
2018-09-04T15:58:06.254Z,4.47
2018-09-04T16:00:34.436Z,4.22
2018-09-04T16:03:02.514Z,4.10
2018-09-04T16:05:30.591Z,5.67
2018-09-04T16:07:58.704Z,8.15
2018-09-04T16:10:26.801Z,10.68
2018-09-04T16:12:54.899Z,7.58
2018-09-04T16:15:22.979Z,7.55
2018-09-04T16:17:51.067Z,3.72
2018-09-04T16:20:19.143Z,5.40
2018-09-04T16:22:47.248Z,4.60
2018-09-04T16:25:15.316Z,7.37
2018-09-04T16:27:43.473Z,5.22
2018-09-04T16:30:11.635Z,4.72
2018-09-04T16:32:39.688Z,5.55
2018-09-04T16:35:07.797Z,4.28
2018-09-04T16:37:35.914Z,4.80
2018-09-04T16:40:04.096Z,4.78
2018-09-04T16:42:32.224Z,3.60
2018-09-04T16:45:00.325Z,4.25
2018-09-04T16:47:28.864Z,5.70
2018-09-04T16:49:56.995Z,4.60
2018-09-04T16:52:25.763Z,4.90
2018-09-04T16:54:53.859Z,7.42
2018-09-04T16:57:21.998Z,4.42
2018-09-04T17:02:43.314Z,5.60
2018-09-04T17:05:11.381Z,5.05
2018-09-04T17:07:39.463Z,4.05
2018-09-04T17:10:07.565Z,4.87
2018-09-04T17:12:35.706Z,4.12
2018-09-04T17:15:03.786Z,4.30
2018-09-04T17:17:31.894Z,5.55
2018-09-04T17:19:59.964Z,15.35
2018-09-04T17:22:28.162Z,31.77
2018-09-04T17:24:56.293Z,18.73
2018-09-04T17:27:24.390Z,22.93
2018-09-04T17:29:52.474Z,28.17
2018-09-04T17:32:20.604Z,19.17
2018-09-04T17:34:48.672Z,8.85
2018-09-04T17:37:16.773Z,8.65
2018-09-04T17:39:44.861Z,5.30
2018-09-04T17:42:12.997Z,4.55
2018-09-04T17:44:41.070Z,4.22
2018-09-04T17:47:09.171Z,5.75
2018-09-04T17:49:37.246Z,4.65
2018-09-04T17:52:05.372Z,4.53
2018-09-04T17:54:33.460Z,4.95
2018-09-04T17:57:01.601Z,5.30
2018-09-04T17:59:29.697Z,5.12
2018-09-04T18:01:57.789Z,5.12
2018-09-04T18:04:25.874Z,4.55
2018-09-04T18:06:53.988Z,4.78
2018-09-04T18:09:22.099Z,6.77
2018-09-04T18:11:50.239Z,5.77
2018-09-04T18:14:18.301Z,6.27
2018-09-04T18:16:48.475Z,8.43
2018-09-04T18:19:16.647Z,5.30
2018-09-04T18:21:44.763Z,6.00
2018-09-04T18:24:12.889Z,5.47
2018-09-04T18:26:40.947Z,4.70
2018-09-04T18:29:09.031Z,7.13
2018-09-04T18:31:37.121Z,5.27
2018-09-04T18:34:06.377Z,6.90
2018-09-04T18:36:34.451Z,8.47
2018-09-04T18:39:02.570Z,5.33
2018-09-04T18:41:30.635Z,6.00
2018-09-04T18:43:58.711Z,5.73
2018-09-04T18:46:26.782Z,8.30
2018-09-04T18:48:56.012Z,5.73
2018-09-04T18:54:16.794Z,6.47
2018-09-04T18:56:44.853Z,7.23
2018-09-04T18:59:12.956Z,4.97
2018-09-04T19:01:41.189Z,9.37
2018-09-04T19:04:09.302Z,7.53
2018-09-04T19:06:37.409Z,5.53
2018-09-04T19:09:06.505Z,7.67
2018-09-04T19:11:34.625Z,5.00
2018-09-04T19:14:02.922Z,6.53
2018-09-04T19:16:30.995Z,7.90
2018-09-04T19:18:59.076Z,5.53
2018-09-04T19:21:27.261Z,5.50
2018-09-04T19:23:55.414Z,6.20
2018-09-04T19:26:23.496Z,6.67
2018-09-04T19:28:51.555Z,6.37
2018-09-04T19:31:19.596Z,5.37
2018-09-04T19:33:47.699Z,7.30
2018-09-04T19:36:15.791Z,5.17
2018-09-04T19:38:43.862Z,7.10
2018-09-04T19:41:11.920Z,8.77
2018-09-04T19:43:40.111Z,6.47
2018-09-04T19:46:08.195Z,9.03
2018-09-04T19:48:36.349Z,7.27
2018-09-04T19:51:04.482Z,7.90
2018-09-04T19:53:32.551Z,5.73
2018-09-04T19:56:00.624Z,6.17
2018-09-04T19:58:28.814Z,6.50
2018-09-04T20:00:56.893Z,7.10
2018-09-04T20:03:24.944Z,6.43
2018-09-04T20:05:53.104Z,6.33
2018-09-04T20:08:21.150Z,9.73
2018-09-04T20:10:49.195Z,5.60
2018-09-04T20:13:17.329Z,10.60
2018-09-04T20:15:45.314Z,8.27
2018-09-04T20:18:14.307Z,8.30
2018-09-04T20:20:42.390Z,6.43
2018-09-04T20:23:10.445Z,7.90
2018-09-04T20:25:38.503Z,7.23
2018-09-04T20:28:06.599Z,6.53
2018-09-04T20:30:35.307Z,7.33
2018-09-04T20:33:03.631Z,7.20
2018-09-04T20:35:31.724Z,6.50
2018-09-04T20:37:59.799Z,6.67
2018-09-04T20:40:27.997Z,6.63
2018-09-04T20:42:56.100Z,7.70
2018-09-04T20:45:25.222Z,7.27
2018-09-04T20:47:53.490Z,6.87
2018-09-04T20:50:21.558Z,7.83
2018-09-04T20:52:49.610Z,7.70
2018-09-04T20:55:17.738Z,7.80
2018-09-04T20:57:57.271Z,6.77
2018-09-04T21:00:36.904Z,9.17
2018-09-04T21:03:16.857Z,9.90
2018-09-04T21:05:56.477Z,7.03
2018-09-04T21:08:39.023Z,8.03
2018-09-04T21:11:07.982Z,8.03
2018-09-04T21:13:36.202Z,7.93
2018-09-04T21:16:04.440Z,15.73
2018-09-04T21:18:32.781Z,7.97
2018-09-04T21:21:00.903Z,9.00
2018-09-04T21:23:29.022Z,8.00
2018-09-04T21:25:57.127Z,8.30
2018-09-04T21:28:25.205Z,9.27
2018-09-04T21:30:53.382Z,7.77
2018-09-04T21:33:21.485Z,11.33
2018-09-04T21:35:49.581Z,9.93
2018-09-04T21:38:17.841Z,9.00
2018-09-04T21:40:45.924Z,9.20
2018-09-04T21:43:14.003Z,9.80
2018-09-04T21:45:42.095Z,9.17
2018-09-04T21:48:10.179Z,9.03
2018-09-04T21:50:38.326Z,10.17
2018-09-04T21:53:06.412Z,9.07
2018-09-04T21:55:34.516Z,10.80
2018-09-04T21:58:02.609Z,9.00
2018-09-04T22:00:30.686Z,11.63
2018-09-04T22:02:58.808Z,9.70
2018-09-04T22:05:27.575Z,10.60
2018-09-04T22:07:57.121Z,11.70
2018-09-04T22:10:25.953Z,9.57
2018-09-04T22:12:54.090Z,9.97
2018-09-04T22:15:22.489Z,11.00
2018-09-04T22:17:50.633Z,10.57
2018-09-04T22:20:18.712Z,10.77
2018-09-04T22:22:46.807Z,12.63
2018-09-04T22:25:14.886Z,12.47
2018-09-04T22:27:42.978Z,14.57
2018-09-04T22:30:11.090Z,13.80
2018-09-04T22:32:39.915Z,12.53
2018-09-04T22:35:08.010Z,13.03
2018-09-04T22:37:36.143Z,15.50
2018-09-04T22:40:04.277Z,12.30
2018-09-04T22:42:32.502Z,16.07
2018-09-04T22:45:00.577Z,13.90
2018-09-04T22:47:28.731Z,17.20
2018-09-04T22:50:02.372Z,13.17
2018-09-04T22:52:31.595Z,16.90
2018-09-04T22:55:01.887Z,14.67
2018-09-04T22:57:30.267Z,17.00
2018-09-04T22:59:58.353Z,16.10
2018-09-04T23:02:26.494Z,17.67
2018-09-04T23:04:55.260Z,22.70
2018-09-04T23:07:23.347Z,27.23
2018-09-04T23:09:51.441Z,21.53
2018-09-04T23:12:19.550Z,22.50
2018-09-04T23:14:47.671Z,22.07
2018-09-04T23:17:15.758Z,23.80
2018-09-04T23:19:43.855Z,23.70
2018-09-04T23:22:11.955Z,21.23
2018-09-04T23:24:40.044Z,24.77
2018-09-04T23:27:08.381Z,26.67
2018-09-04T23:29:36.979Z,25.13
2018-09-04T23:32:05.079Z,27.40
2018-09-04T23:34:33.159Z,27.67
2018-09-04T23:37:01.244Z,28.90
2018-09-04T23:39:29.417Z,27.27
2018-09-04T23:41:57.543Z,30.57
2018-09-04T23:44:25.646Z,29.03
2018-09-04T23:46:53.738Z,29.03
2018-09-04T23:49:21.832Z,37.40
2018-09-04T23:51:50.034Z,35.10
2018-09-04T23:54:18.130Z,43.83
2018-09-04T23:56:46.206Z,41.07
2018-09-04T23:59:14.310Z,41.70
